Time;durP1;ratioP1;P1;durP2;ratioP2;P2;SDS_P1;SDS_P2;PMS_P1;PMS_P2;Temp;Humidity;BMP_temperature;BMP_pressure;BME280_temperature;BME280_humidity;BME280_pressure;Samples;Min_cycle;Max_cycle;Signal;HPM_P1;HPM_P2
2022/03/16 00:00:18;;;;;;;23.05;13.73;;;;;;;6.51;100.00;97238.28;2066703;28;20240;-63
2022/03/16 00:01:19;;;;;;;25.83;15.48;;;;;;;6.63;100.00;97243.88;2068269;28;20202;-63
2022/03/16 00:02:21;;;;;;;26.02;15.35;;;;;;;6.62;100.00;97239.56;2070034;28;20213;-63
2022/03/16 00:03:23;;;;;;;25.13;14.15;;;;;;;6.53;100.00;97243.44;2069761;28;20193;-63
2022/03/16 00:04:24;;;;;;;22.95;14.45;;;;;;;6.53;100.00;97235.63;2069324;28;20197;-63
2022/03/16 00:05:27;;;;;;;22.20;13.85;;;;;;;6.55;100.00;97236.41;2068932;28;20251;-63
2022/03/16 00:06:28;;;;;;;25.52;15.50;;;;;;;6.52;100.00;97239.94;2069415;28;20203;-63
2022/03/16 00:07:30;;;;;;;22.42;14.45;;;;;;;6.65;100.00;97239.47;2068496;28;20204;-63
2022/03/16 00:08:31;;;;;;;21.15;13.88;;;;;;;6.51;100.00;97235.69;2065858;28;20210;-63
2022/03/16 00:09:32;;;;;;;21.02;13.80;;;;;;;6.46;100.00;97245.41;2069510;28;20839;-63
2022/03/16 00:10:34;;;;;;;23.30;15.93;;;;;;;6.50;100.00;97249.59;2066816;28;20226;-63
2022/03/16 00:11:35;;;;;;;26.23;15.88;;;;;;;6.57;100.00;97250.19;2069127;28;20205;-63
2022/03/16 00:12:39;;;;;;;25.17;15.18;;;;;;;6.51;100.00;97242.66;2069189;28;20684;-63
2022/03/16 00:13:40;;;;;;;27.83;16.25;;;;;;;6.62;100.00;97247.38;2068009;28;20254;-63
2022/03/16 00:14:42;;;;;;;20.50;13.48;;;;;;;6.62;100.00;97252.59;2069237;28;20191;-63
2022/03/16 00:15:43;;;;;;;26.75;15.13;;;;;;;6.64;100.00;97246.41;2069431;28;20221;-63
2022/03/16 00:16:45;;;;;;;22.92;14.13;;;;;;;6.61;100.00;97245.72;2069441;28;20652;-63
2022/03/16 00:17:47;;;;;;;22.83;14.60;;;;;;;6.56;100.00;97251.09;2067386;28;20751;-63
2022/03/16 00:18:48;;;;;;;24.20;15.15;;;;;;;6.52;100.00;97247.75;2068261;28;20209;-64
2022/03/16 00:19:50;;;;;;;23.98;15.63;;;;;;;6.59;100.00;97250.97;2068409;28;20655;-62
2022/03/16 00:20:52;;;;;;;23.77;14.90;;;;;;;6.71;100.00;97253.03;2068952;28;20745;-63
2022/03/16 00:21:53;;;;;;;22.15;14.68;;;;;;;6.61;100.00;97245.72;2069385;28;20202;-63
2022/03/16 00:22:54;;;;;;;26.33;16.15;;;;;;;6.59;100.00;97252.72;2067623;28;20206;-63
2022/03/16 00:23:56;;;;;;;23.90;15.57;;;;;;;6.59;100.00;97248.38;2068783;28;20203;-63
2022/03/16 00:24:58;;;;;;;22.17;15.52;;;;;;;6.51;100.00;97251.28;2067538;28;20196;-63
2022/03/16 00:25:59;;;;;;;28.10;16.48;;;;;;;6.61;100.00;97245.72;2069623;28;20230;-63
2022/03/16 00:27:01;;;;;;;21.13;14.95;;;;;;;6.64;100.00;97251.59;2068062;28;20194;-63
2022/03/16 00:28:03;;;;;;;27.70;15.98;;;;;;;6.67;100.00;97242.84;2068904;28;20201;-63
2022/03/16 00:29:04;;;;;;;27.73;17.17;;;;;;;6.58;100.00;97248.44;2070963;28;20194;-63
2022/03/16 00:30:06;;;;;;;23.48;14.07;;;;;;;6.52;100.00;97245.16;2064542;28;20577;-63
2022/03/16 00:31:08;;;;;;;25.52;15.18;;;;;;;6.52;100.00;97241.72;2068686;28;20235;-63
2022/03/16 00:32:09;;;;;;;23.90;14.73;;;;;;;6.51;100.00;97246.09;2066794;28;20245;-63
2022/03/16 00:33:11;;;;;;;24.08;15.80;;;;;;;6.56;100.00;97239.84;2070111;28;20270;-63
2022/03/16 00:34:12;;;;;;;25.92;16.20;;;;;;;6.63;100.00;97243.88;2068936;28;20217;-63
2022/03/16 00:35:14;;;;;;;24.13;15.55;;;;;;;6.70;100.00;97243.56;2066809;28;20198;-63
2022/03/16 00:36:17;;;;;;;26.42;16.50;;;;;;;6.53;100.00;97244.25;2068222;28;20201;-63
2022/03/16 00:37:18;;;;;;;25.75;16.77;;;;;;;6.52;100.00;97242.56;2069880;28;20202;-63
2022/03/16 00:38:20;;;;;;;27.02;16.05;;;;;;;6.51;100.00;97243.47;2065357;28;20201;-64
2022/03/16 00:39:21;;;;;;;25.85;16.55;;;;;;;6.46;100.00;97237.63;2068612;28;20693;-63
2022/03/16 00:40:22;;;;;;;27.77;17.25;;;;;;;6.41;100.00;97241.31;2068696;28;20221;-63
2022/03/16 00:41:24;;;;;;;30.05;18.25;;;;;;;6.36;100.00;97238.91;2068235;28;20369;-63
2022/03/16 00:42:26;;;;;;;29.70;19.02;;;;;;;6.44;100.00;97249.00;2069228;28;20217;-63
2022/03/16 00:43:27;;;;;;;37.13;17.25;;;;;;;6.41;100.00;97239.59;2068606;28;20201;-63
2022/03/16 00:44:34;;;;;;;27.98;19.13;;;;;;;6.46;100.00;97242.81;2066676;28;20194;-63
2022/03/16 00:45:36;;;;;;;26.35;17.35;;;;;;;6.44;100.00;97239.44;2067672;28;20222;-63
2022/03/16 00:46:37;;;;;;;27.35;18.00;;;;;;;6.40;100.00;97235.28;2066889;28;20201;-63
2022/03/16 00:47:39;;;;;;;31.02;18.90;;;;;;;6.52;100.00;97236.50;2067360;28;20199;-63
2022/03/16 00:48:41;;;;;;;28.63;19.40;;;;;;;6.59;100.00;97237.97;2069275;28;20290;-63
2022/03/16 00:49:42;;;;;;;32.85;19.35;;;;;;;6.48;100.00;97230.59;2068812;28;20195;-63
2022/03/16 00:50:44;;;;;;;30.90;19.58;;;;;;;6.46;100.00;97236.78;2067081;28;20219;-63
2022/03/16 00:51:45;;;;;;;30.05;18.40;;;;;;;6.48;100.00;97237.56;2069169;28;20569;-63
2022/03/16 00:52:47;;;;;;;30.70;19.10;;;;;;;6.43;100.00;97234.28;2067696;28;20197;-63
2022/03/16 00:53:48;;;;;;;32.10;19.20;;;;;;;6.46;100.00;97240.22;2069105;28;20194;-64
2022/03/16 00:54:50;;;;;;;32.50;20.08;;;;;;;6.40;100.00;97237.88;2067672;28;20210;-63
2022/03/16 00:55:51;;;;;;;31.13;19.35;;;;;;;6.42;100.00;97233.44;2068797;28;20877;-63
2022/03/16 00:56:52;;;;;;;30.73;20.05;;;;;;;6.45;100.00;97240.28;2069115;28;20199;-63
2022/03/16 00:57:54;;;;;;;35.20;20.70;;;;;;;6.46;100.00;97240.22;2067834;28;20202;-63
2022/03/16 00:58:55;;;;;;;33.95;20.65;;;;;;;6.43;100.00;97237.75;2068508;28;20202;-63
2022/03/16 00:59:58;;;;;;;34.78;21.15;;;;;;;6.38;100.00;97234.50;2068333;28;20708;-63
2022/03/16 01:01:00;;;;;;;35.08;20.75;;;;;;;6.53;100.00;97241.66;2070149;28;20248;-63
2022/03/16 01:02:03;;;;;;;34.92;20.25;;;;;;;6.49;100.00;97234.06;2068239;28;20285;-64
2022/03/16 01:03:04;;;;;;;38.03;22.00;;;;;;;6.46;100.00;97237.63;2069044;28;20238;-64
2022/03/16 01:04:06;;;;;;;35.70;21.27;;;;;;;6.48;100.00;97235.78;2066872;28;20205;-63
2022/03/16 01:05:08;;;;;;;33.55;21.63;;;;;;;6.44;100.00;97238.59;2066789;28;20206;-63
2022/03/16 01:06:15;;;;;;;43.28;21.10;;;;;;;6.44;100.00;97239.44;2061921;28;20206;-63
2022/03/16 01:07:16;;;;;;;31.10;20.35;;;;;;;6.43;100.00;97232.56;2061044;28;20597;-63
2022/03/16 01:08:18;;;;;;;34.08;21.40;;;;;;;6.36;100.00;97219.88;2068746;28;20198;-63
2022/03/16 01:09:20;;;;;;;38.00;21.38;;;;;;;6.47;100.00;97238.47;2067940;28;20202;-63
2022/03/16 01:10:22;;;;;;;33.00;20.85;;;;;;;6.54;100.00;97235.53;2067931;28;20319;-63
2022/03/16 01:11:23;;;;;;;34.85;22.23;;;;;;;6.53;100.00;97233.00;2068799;28;20558;-63
2022/03/16 01:12:25;;;;;;;36.90;22.95;;;;;;;6.52;100.00;97229.53;2068803;28;20202;-64
2022/03/16 01:13:27;;;;;;;32.13;20.42;;;;;;;6.45;100.00;97233.34;2068254;28;20202;-63
2022/03/16 01:14:29;;;;;;;37.85;22.40;;;;;;;6.44;100.00;97234.22;2068049;28;20197;-63
2022/03/16 01:15:31;;;;;;;35.97;21.63;;;;;;;6.39;100.00;97235.34;2066600;28;20708;-64
2022/03/16 01:16:35;;;;;;;39.25;22.02;;;;;;;6.41;100.00;97231.78;2068229;28;20194;-63
2022/03/16 01:17:37;;;;;;;36.55;21.95;;;;;;;6.39;100.00;97227.53;2067410;28;20198;-64
2022/03/16 01:18:39;;;;;;;38.13;22.60;;;;;;;6.38;100.00;97234.50;2067662;28;20547;-63
2022/03/16 01:19:40;;;;;;;38.17;22.63;;;;;;;6.42;100.00;97230.84;2069379;28;20194;-63
2022/03/16 01:20:42;;;;;;;33.67;22.35;;;;;;;6.44;100.00;97229.03;2069278;28;20229;-64
2022/03/16 01:21:44;;;;;;;40.28;22.70;;;;;;;6.42;100.00;97230.84;2066582;28;20194;-64
2022/03/16 01:22:46;;;;;;;35.95;22.52;;;;;;;6.42;100.00;97228.25;2067277;28;20256;-63
2022/03/16 01:23:47;;;;;;;35.40;22.80;;;;;;;6.50;100.00;97225.31;2068750;28;20202;-64
2022/03/16 01:24:49;;;;;;;35.53;21.13;;;;;;;6.49;100.00;97231.47;2068935;28;20194;-63
2022/03/16 01:25:51;;;;;;;33.75;20.10;;;;;;;6.43;100.00;97231.69;2069707;28;20712;-63
2022/03/16 01:26:52;;;;;;;37.45;22.70;;;;;;;6.35;100.00;97232.03;2067157;28;20198;-64
2022/03/16 01:27:54;;;;;;;36.58;22.08;;;;;;;6.30;100.00;97226.16;2068659;28;20807;-64
2022/03/16 01:28:55;;;;;;;40.97;24.00;;;;;;;6.32;100.00;97232.16;2068452;28;20202;-63
2022/03/16 01:29:56;;;;;;;38.58;23.25;;;;;;;6.32;100.00;97233.00;2065337;28;20604;-63
2022/03/16 01:31:00;;;;;;;45.40;26.65;;;;;;;6.34;100.00;97227.72;2068282;28;20221;-63
2022/03/16 01:32:02;;;;;;;43.55;25.65;;;;;;;6.23;100.00;97230.75;2068452;28;20195;-64
2022/03/16 01:33:03;;;;;;;38.22;24.05;;;;;;;6.26;100.00;97227.22;2068466;28;20198;-63
2022/03/16 01:34:05;;;;;;;41.65;24.92;;;;;;;6.14;100.00;97226.81;2069597;28;20205;-64
2022/03/16 01:35:07;;;;;;;42.20;24.65;;;;;;;6.23;100.00;97235.13;2068897;28;20202;-64
2022/03/16 01:36:09;;;;;;;50.80;26.83;;;;;;;6.17;100.00;97228.41;2068979;28;20198;-63
2022/03/16 01:37:10;;;;;;;46.53;27.60;;;;;;;6.19;100.00;97233.56;2067452;28;20200;-63
2022/03/16 01:38:12;;;;;;;40.33;24.67;;;;;;;6.16;100.00;97223.31;2067402;28;20198;-63
2022/03/16 01:39:15;;;;;;;47.65;26.52;;;;;;;6.21;100.00;97223.94;2066753;28;20198;-63
2022/03/16 01:40:16;;;;;;;44.13;27.23;;;;;;;6.20;100.00;97230.06;2068552;28;20197;-63
2022/03/16 01:41:17;;;;;;;43.85;26.30;;;;;;;6.10;100.00;97227.84;2070458;28;20203;-64
2022/03/16 01:42:20;;;;;;;43.53;23.77;;;;;;;6.07;100.00;97224.50;2067832;28;20193;-63
2022/03/16 01:43:23;;;;;;;41.17;26.02;;;;;;;5.93;100.00;97225.03;2067073;28;20228;-64
2022/03/16 01:45:00;;;;;;;46.88;27.17;;;;;;;6.16;100.00;97226.75;2063425;28;20194;-63
2022/03/16 01:46:02;;;;;;;43.25;24.20;;;;;;;5.98;100.00;97219.69;2046638;29;20224;-64
2022/03/16 01:47:04;;;;;;;46.80;25.05;;;;;;;5.96;100.00;97227.56;2046976;29;20290;-63
2022/03/16 01:48:06;;;;;;;46.10;24.90;;;;;;;5.92;100.00;97231.16;2045332;29;20227;-64
2022/03/16 01:49:07;;;;;;;47.90;26.55;;;;;;;5.84;100.00;97225.41;2046617;29;20596;-64
2022/03/16 01:50:09;;;;;;;42.63;25.40;;;;;;;5.79;100.00;97220.41;2044555;29;20276;-63
2022/03/16 01:51:11;;;;;;;48.95;26.70;;;;;;;5.87;100.00;97233.09;2042689;29;20623;-64
2022/03/16 01:52:23;;;;;;;49.90;28.08;;;;;;;5.82;100.00;97229.81;2044094;29;20204;-64
2022/03/16 01:53:26;;;;;;;45.78;25.48;;;;;;;5.87;100.00;97230.50;2046453;29;20206;-64
2022/03/16 01:54:28;;;;;;;46.58;25.40;;;;;;;5.94;100.00;97226.75;2046653;29;20193;-64
2022/03/16 01:55:30;;;;;;;46.45;25.50;;;;;;;5.88;100.00;97225.25;2045824;29;20232;-64
2022/03/16 01:56:31;;;;;;;47.33;26.45;;;;;;;5.88;100.00;97230.44;2045805;29;20203;-64
2022/03/16 01:57:34;;;;;;;48.83;25.95;;;;;;;5.89;100.00;97232.09;2046717;29;20196;-64
2022/03/16 01:58:35;;;;;;;46.10;26.35;;;;;;;5.97;100.00;97228.41;2046538;28;20587;-64
2022/03/16 01:59:38;;;;;;;46.25;27.00;;;;;;;5.97;100.00;97234.44;2044567;29;20199;-63
2022/03/16 02:00:40;;;;;;;47.67;26.88;;;;;;;6.01;100.00;97225.59;2046248;29;20231;-64
2022/03/16 02:01:42;;;;;;;48.75;26.77;;;;;;;5.95;100.00;97228.44;2046869;29;20637;-63
2022/03/16 02:02:46;;;;;;;57.97;28.63;;;;;;;5.85;100.00;97233.13;2046803;29;20203;-63
2022/03/16 02:03:47;;;;;;;54.13;29.30;;;;;;;5.86;100.00;97228.78;2046838;29;20196;-64
2022/03/16 02:04:49;;;;;;;56.80;29.70;;;;;;;5.91;100.00;97235.50;2045775;29;20695;-63
2022/03/16 02:05:51;;;;;;;52.72;27.70;;;;;;;5.97;100.00;97225.81;2045038;29;20244;-63
2022/03/16 02:06:53;;;;;;;57.85;29.90;;;;;;;5.90;100.00;97225.16;2046633;29;20202;-64
2022/03/16 02:07:55;;;;;;;53.92;27.80;;;;;;;5.78;100.00;97228.25;2046665;29;20711;-64
2022/03/16 02:08:57;;;;;;;52.08;28.38;;;;;;;5.68;100.00;97226.00;2047006;29;20633;-64
2022/03/16 02:10:00;;;;;;;56.67;29.15;;;;;;;5.64;100.00;97227.03;2046445;29;20210;-64
2022/03/16 02:11:02;;;;;;;54.67;29.65;;;;;;;5.67;100.00;97226.91;2045078;29;20199;-64
2022/03/16 02:12:05;;;;;;;54.53;28.80;;;;;;;5.70;100.00;97220.75;2046244;29;20921;-63
2022/03/16 02:13:09;;;;;;;53.35;29.33;;;;;;;5.77;100.00;97223.97;2046716;29;20199;-64
2022/03/16 02:14:12;;;;;;;53.33;29.48;;;;;;;5.75;100.00;97219.66;2045496;29;20242;-64
2022/03/16 02:15:13;;;;;;;58.45;31.67;;;;;;;5.75;100.00;97219.66;2046378;29;20207;-64
2022/03/16 02:16:15;;;;;;;60.10;30.42;;;;;;;5.67;100.00;97226.09;2045341;29;20208;-64
2022/03/16 02:17:17;;;;;;;52.97;28.88;;;;;;;5.68;100.00;97220.81;2046867;29;20196;-63
2022/03/16 02:18:18;;;;;;;59.80;31.23;;;;;;;5.77;100.00;97221.38;2045630;29;20294;-64
2022/03/16 02:19:20;;;;;;;58.67;32.17;;;;;;;5.82;100.00;97211.63;2044600;29;20206;-64
2022/03/16 02:20:22;;;;;;;61.17;30.33;;;;;;;5.91;100.00;97216.47;2045192;29;20220;-64
2022/03/16 02:21:25;;;;;;;62.08;33.13;;;;;;;5.97;100.00;97216.25;2067713;28;20198;-63
2022/03/16 02:22:30;;;;;;;58.60;30.60;;;;;;;5.93;100.00;97218.06;2065817;28;20206;-64
2022/03/16 02:23:31;;;;;;;54.75;30.92;;;;;;;5.97;100.00;97224.03;2069302;28;20212;-64
2022/03/16 02:24:33;;;;;;;56.45;31.48;;;;;;;5.99;100.00;97226.59;2068690;28;20862;-63
2022/03/16 02:25:49;;;;;;;53.25;29.30;;;;;;;6.05;100.00;97221.97;2068426;28;20229;-64
2022/03/16 02:26:51;;;;;;;62.85;32.05;;;;;;;6.07;100.00;97220.16;2065336;28;20206;-63
2022/03/16 02:27:53;;;;;;;51.22;29.85;;;;;;;6.05;100.00;97216.75;2068382;28;20234;-63
2022/03/16 02:28:55;;;;;;;54.47;28.92;;;;;;;6.08;100.00;97221.84;2069341;28;20206;-63
2022/03/16 02:29:56;;;;;;;58.75;30.33;;;;;;;6.13;100.00;97214.72;2068678;28;20592;-64
2022/03/16 02:30:59;;;;;;;54.25;29.52;;;;;;;6.16;100.00;97221.53;2067793;28;20236;-64
2022/03/16 02:32:01;;;;;;;70.05;30.65;;;;;;;6.16;100.00;97215.50;2068359;28;20523;-63
2022/03/16 02:33:02;;;;;;;56.92;31.27;;;;;;;6.20;100.00;97212.69;2069367;28;20710;-63
2022/03/16 02:34:04;;;;;;;62.90;31.60;;;;;;;6.20;100.00;97217.91;2066370;28;20673;-63
2022/03/16 02:35:06;;;;;;;53.78;28.70;;;;;;;6.23;100.00;97214.31;2068102;28;20534;-63
2022/03/16 02:36:07;;;;;;;53.95;28.40;;;;;;;6.24;100.00;97216.03;2067791;28;20199;-64
2022/03/16 02:37:09;;;;;;;52.20;28.45;;;;;;;6.21;100.00;97221.34;2066712;28;20203;-63
2022/03/16 02:38:10;;;;;;;53.80;30.08;;;;;;;6.16;100.00;97216.34;2067083;28;20203;-64
2022/03/16 02:39:12;;;;;;;61.10;31.67;;;;;;;6.16;100.00;97221.53;2067034;28;20202;-64
2022/03/16 02:40:23;;;;;;;62.22;30.83;;;;;;;6.32;100.00;97219.16;2066935;28;20675;-64
2022/03/16 02:41:24;;;;;;;60.90;30.42;;;;;;;6.23;100.00;97214.31;2067883;28;20198;-63
2022/03/16 02:42:25;;;;;;;58.35;31.42;;;;;;;6.22;100.00;97220.44;2071328;28;20209;-64
2022/03/16 02:43:27;;;;;;;67.60;31.17;;;;;;;6.06;100.00;97223.66;2068914;28;20212;-63
2022/03/16 02:44:31;;;;;;;62.25;31.10;;;;;;;6.02;100.00;97221.25;2067390;28;20190;-64
2022/03/16 02:45:33;;;;;;;64.03;32.35;;;;;;;6.00;100.00;97213.53;2067086;28;20739;-64
2022/03/16 02:46:34;;;;;;;63.20;33.28;;;;;;;6.03;100.00;97223.78;2070148;28;20230;-63
2022/03/16 02:47:39;;;;;;;65.95;33.88;;;;;;;6.00;100.00;97220.47;2065668;28;20624;-64
2022/03/16 02:48:41;;;;;;;61.70;31.75;;;;;;;6.04;100.00;97215.09;2066125;28;20194;-64
2022/03/16 02:49:42;;;;;;;63.75;33.00;;;;;;;6.11;100.00;97229.50;2066140;28;20203;-64
2022/03/16 02:50:44;;;;;;;61.22;30.50;;;;;;;6.07;100.00;97225.34;2065794;28;20685;-63
2022/03/16 02:51:45;;;;;;;67.40;32.08;;;;;;;6.17;100.00;97220.63;2067021;28;20550;-64
2022/03/16 02:52:47;;;;;;;57.13;30.45;;;;;;;6.17;100.00;97228.41;2067740;28;20202;-63
2022/03/16 02:54:09;;;;;;;65.75;32.83;;;;;;;6.24;100.00;97227.28;2065637;28;20220;-64
2022/03/16 02:55:12;;;;;;;62.13;32.25;;;;;;;6.19;100.00;97234.41;2069513;28;20206;-63
2022/03/16 02:56:14;;;;;;;67.00;34.28;;;;;;;6.23;100.00;97227.31;2067552;28;20198;-63
2022/03/16 02:57:16;;;;;;;54.55;30.00;;;;;;;6.19;100.00;97229.19;2067228;28;20194;-64
2022/03/16 02:58:18;;;;;;;65.93;33.47;;;;;;;6.14;100.00;97229.41;2068584;28;20621;-63
2022/03/16 02:59:19;;;;;;;67.00;33.67;;;;;;;6.23;100.00;97227.31;2067979;28;20209;-64
2022/03/16 03:00:21;;;;;;;67.22;32.53;;;;;;;6.12;100.00;97228.63;2066040;28;20222;-64
2022/03/16 03:01:23;;;;;;;65.47;34.67;;;;;;;6.29;100.00;97229.66;2067766;28;20210;-64
2022/03/16 03:02:25;;;;;;;73.32;33.30;;;;;;;6.21;100.00;97235.19;2067854;28;20653;-64
2022/03/16 03:03:27;;;;;;;67.10;32.28;;;;;;;6.04;100.00;97230.69;2067816;28;20225;-64
2022/03/16 03:04:28;;;;;;;65.20;33.45;;;;;;;6.05;100.00;97231.53;2069535;28;20201;-64
2022/03/16 03:05:30;;;;;;;67.53;30.98;;;;;;;6.00;100.00;97231.72;2066690;28;20257;-64
2022/03/16 03:06:32;;;;;;;68.05;32.92;;;;;;;6.02;100.00;97232.50;2068534;28;20195;-64
2022/03/16 03:07:33;;;;;;;62.03;31.58;;;;;;;6.05;100.00;97232.38;2068624;28;20197;-64
2022/03/16 03:08:35;;;;;;;64.68;31.90;;;;;;;6.08;100.00;97232.25;2068311;28;20202;-63
2022/03/16 03:09:36;;;;;;;67.80;33.25;;;;;;;6.10;100.00;97238.25;2070532;28;20197;-64
2022/03/16 03:10:38;;;;;;;70.75;32.85;;;;;;;6.12;100.00;97228.63;2067843;28;20754;-63
2022/03/16 03:11:40;;;;;;;66.05;32.58;;;;;;;6.09;100.00;97233.94;2070987;28;20195;-64
2022/03/16 03:12:41;;;;;;;67.40;32.63;;;;;;;6.20;100.00;97236.09;2069666;28;20229;-63
2022/03/16 03:13:43;;;;;;;64.47;31.80;;;;;;;6.27;100.00;97242.75;2071054;28;20198;-64
2022/03/16 03:14:44;;;;;;;65.55;32.40;;;;;;;6.28;100.00;97231.44;2072304;28;20202;-64
2022/03/16 03:15:46;;;;;;;67.05;32.47;;;;;;;6.24;100.00;97237.66;2067387;28;20223;-63
2022/03/16 03:16:48;;;;;;;68.85;35.40;;;;;;;6.23;100.00;97237.72;2072200;28;20263;-64
2022/03/16 03:17:54;;;;;;;71.57;31.40;;;;;;;6.27;100.00;97237.56;2067741;28;20239;-63
2022/03/16 03:18:55;;;;;;;65.28;32.83;;;;;;;6.23;100.00;97235.97;2068267;28;20194;-63
2022/03/16 03:19:57;;;;;;;64.00;31.80;;;;;;;6.18;100.00;97237.09;2067056;28;20194;-63
2022/03/16 03:20:59;;;;;;;62.65;33.13;;;;;;;6.05;100.00;97237.56;2068555;28;20202;-63
2022/03/16 03:22:01;;;;;;;63.25;31.13;;;;;;;6.06;100.00;97231.47;2066404;28;20223;-63
2022/03/16 03:23:02;;;;;;;76.28;34.55;;;;;;;6.03;100.00;97234.19;2067135;28;20209;-63
2022/03/16 03:24:04;;;;;;;71.95;34.75;;;;;;;6.08;100.00;97226.22;2068507;28;20227;-64
2022/03/16 03:25:14;;;;;;;77.78;34.85;;;;;;;6.12;100.00;97233.81;2069748;28;20229;-64
2022/03/16 03:26:16;;;;;;;64.53;33.78;;;;;;;5.84;100.00;97233.19;2070202;28;20201;-63
2022/03/16 03:27:17;;;;;;;62.85;33.40;;;;;;;5.88;100.00;97237.38;2070000;28;20202;-64
2022/03/16 03:28:18;;;;;;;69.13;34.58;;;;;;;5.88;100.00;97242.56;2068416;28;20536;-64
2022/03/16 03:29:20;;;;;;;71.47;34.95;;;;;;;5.81;100.00;97243.72;2070154;28;20202;-64
2022/03/16 03:30:21;;;;;;;63.08;32.65;;;;;;;5.92;100.00;97242.41;2070189;28;20218;-64
2022/03/16 03:31:23;;;;;;;67.60;34.10;;;;;;;5.94;100.00;97227.59;2069253;28;20205;-64
2022/03/16 03:32:25;;;;;;;71.38;34.95;;;;;;;5.91;100.00;97239.84;2068136;28;20212;-64
2022/03/16 03:33:26;;;;;;;63.88;33.60;;;;;;;6.04;100.00;97241.09;2067967;28;20206;-64
2022/03/16 03:34:28;;;;;;;67.00;34.67;;;;;;;6.01;100.00;97243.81;2071153;28;20277;-63
2022/03/16 03:35:30;;;;;;;67.88;32.63;;;;;;;5.92;100.00;97236.38;2068995;28;20630;-63
2022/03/16 03:36:32;;;;;;;72.75;33.33;;;;;;;5.89;100.00;97234.72;2067017;28;20193;-64
2022/03/16 03:37:33;;;;;;;64.13;31.67;;;;;;;5.91;100.00;97239.84;2069369;28;20202;-63
2022/03/16 03:38:35;;;;;;;72.72;35.08;;;;;;;6.03;100.00;97236.78;2067866;28;20198;-63
2022/03/16 03:39:36;;;;;;;67.28;31.45;;;;;;;6.10;100.00;97251.25;2070023;28;20261;-63
2022/03/16 03:40:38;;;;;;;74.18;36.20;;;;;;;6.25;100.00;97248.91;2068851;28;20334;-64
2022/03/16 03:41:39;;;;;;;58.97;32.20;;;;;;;6.19;100.00;97239.59;2066196;28;20197;-64
2022/03/16 03:42:41;;;;;;;62.17;32.10;;;;;;;6.20;100.00;97243.06;2067506;28;20198;-63
2022/03/16 03:43:42;;;;;;;69.30;32.30;;;;;;;6.14;100.00;97247.59;2066985;28;20810;-64
2022/03/16 03:44:43;;;;;;;68.55;33.42;;;;;;;6.15;100.00;97245.84;2068471;28;20280;-64
2022/03/16 03:45:45;;;;;;;65.88;33.10;;;;;;;6.08;100.00;97239.22;2067850;28;20578;-63
2022/03/16 03:46:46;;;;;;;67.72;33.25;;;;;;;6.09;100.00;97246.94;2069076;28;20209;-63
2022/03/16 03:47:48;;;;;;;77.22;33.45;;;;;;;5.84;100.00;97244.47;2069051;28;20312;-64
2022/03/16 03:48:49;;;;;;;65.65;32.90;;;;;;;5.68;100.00;97231.19;2070611;28;20203;-63
2022/03/16 03:49:51;;;;;;;67.22;31.10;;;;;;;5.84;100.00;97246.19;2068820;28;20198;-63
2022/03/16 03:50:52;;;;;;;63.58;31.75;;;;;;;5.89;100.00;97249.47;2068774;28;20222;-63
2022/03/16 03:51:54;;;;;;;65.93;33.60;;;;;;;5.91;100.00;97250.25;2068672;28;20814;-64
2022/03/16 03:52:55;;;;;;;81.32;35.65;;;;;;;5.97;100.00;97247.44;2067828;28;20206;-63
2022/03/16 03:53:57;;;;;;;57.35;30.10;;;;;;;5.89;100.00;97245.09;2070010;28;20230;-63
2022/03/16 03:54:58;;;;;;;66.80;32.97;;;;;;;5.94;100.00;97248.38;2068228;28;20243;-63
2022/03/16 03:55:59;;;;;;;72.07;33.55;;;;;;;5.95;100.00;97249.25;2069637;28;20710;-63
2022/03/16 03:57:02;;;;;;;86.68;35.65;;;;;;;6.00;100.00;97247.31;2068219;28;20199;-63
2022/03/16 03:58:03;;;;;;;69.05;32.05;;;;;;;5.97;100.00;97246.59;2069397;28;20202;-63
2022/03/16 03:59:05;;;;;;;66.70;32.00;;;;;;;6.05;100.00;97244.53;2068238;28;20208;-64
2022/03/16 04:00:09;;;;;;;69.15;32.70;;;;;;;6.10;100.00;97246.03;2069075;28;20197;-64
2022/03/16 04:01:10;;;;;;;84.55;32.20;;;;;;;6.09;100.00;97248.69;2070226;28;20198;-65
2022/03/16 04:02:12;;;;;;;65.07;31.25;;;;;;;6.16;100.00;97244.94;2069943;28;20193;-64
2022/03/16 04:03:13;;;;;;;66.72;32.72;;;;;;;6.17;100.00;97245.78;2068503;28;20935;-64
2022/03/16 04:04:15;;;;;;;66.57;31.75;;;;;;;6.17;100.00;97245.78;2070820;28;20305;-64
2022/03/16 04:05:18;;;;;;;67.03;33.22;;;;;;;6.19;100.00;97239.59;2070434;28;20231;-64
2022/03/16 04:06:19;;;;;;;62.42;31.70;;;;;;;6.17;100.00;97248.38;2071019;28;20198;-64
2022/03/16 04:07:21;;;;;;;82.28;34.88;;;;;;;6.15;100.00;97245.84;2070706;28;20657;-64
2022/03/16 04:08:22;;;;;;;69.25;29.98;;;;;;;6.18;100.00;97248.34;2067410;28;20205;-64
2022/03/16 04:09:24;;;;;;;60.53;32.60;;;;;;;6.23;100.00;97246.38;2068888;28;20194;-64
2022/03/16 04:10:25;;;;;;;65.85;32.63;;;;;;;6.20;100.00;97243.06;2067346;28;20236;-64
2022/03/16 04:11:27;;;;;;;67.40;33.15;;;;;;;6.19;100.00;97246.56;2067200;28;20195;-65
2022/03/16 04:12:28;;;;;;;70.80;32.33;;;;;;;6.21;100.00;97250.78;2070307;28;20193;-64
2022/03/16 04:13:30;;;;;;;74.00;34.58;;;;;;;6.20;100.00;97245.69;2066408;28;20577;-64
2022/03/16 04:14:31;;;;;;;68.88;31.73;;;;;;;6.21;100.00;97242.16;2068766;28;20245;-64
2022/03/16 04:15:34;;;;;;;62.70;32.15;;;;;;;6.21;100.00;97248.19;2068081;28;20225;-64
2022/03/16 04:16:36;;;;;;;72.80;33.15;;;;;;;6.13;100.00;97239.84;2070466;28;20231;-64
2022/03/16 04:17:38;;;;;;;77.97;33.38;;;;;;;6.16;100.00;97246.72;2070454;28;20215;-64
2022/03/16 04:18:39;;;;;;;68.90;32.85;;;;;;;6.16;100.00;97249.31;2069801;28;20726;-65
2022/03/16 04:19:41;;;;;;;83.88;35.67;;;;;;;6.15;100.00;97243.25;2068700;28;20205;-64
2022/03/16 04:20:43;;;;;;;79.03;36.58;;;;;;;6.21;100.00;97248.19;2067456;28;20222;-64
2022/03/16 04:21:44;;;;;;;78.00;34.08;;;;;;;6.19;100.00;97246.56;2068809;28;20205;-64
2022/03/16 04:22:46;;;;;;;79.90;37.28;;;;;;;6.14;100.00;97245.00;2069253;28;20848;-65
2022/03/16 04:23:47;;;;;;;79.93;35.45;;;;;;;6.21;100.00;97245.59;2070582;28;20198;-65
2022/03/16 04:24:49;;;;;;;77.82;34.95;;;;;;;6.23;100.00;97242.94;2070945;28;20214;-65
2022/03/16 04:25:50;;;;;;;70.55;32.35;;;;;;;6.27;100.00;97241.88;2071347;28;20697;-65
2022/03/16 04:26:52;;;;;;;82.28;34.55;;;;;;;6.18;100.00;97244.91;2067453;28;20197;-64
2022/03/16 04:27:53;;;;;;;83.32;36.55;;;;;;;6.20;100.00;97246.50;2069206;28;20206;-64
2022/03/16 04:28:55;;;;;;;80.80;37.15;;;;;;;6.21;100.00;97250.78;2069005;28;20206;-64
2022/03/16 04:29:57;;;;;;;79.97;35.45;;;;;;;5.94;100.00;97224.16;2067128;28;20199;-64
2022/03/16 04:31:00;;;;;;;83.60;37.67;;;;;;;6.16;100.00;97251.91;2068454;28;20662;-65
2022/03/16 04:32:01;;;;;;;86.45;35.08;;;;;;;6.13;100.00;97251.13;2069481;28;20202;-65
2022/03/16 04:33:03;;;;;;;74.65;36.63;;;;;;;6.11;100.00;97246.88;2068389;28;20209;-65
2022/03/16 04:34:04;;;;;;;75.47;35.22;;;;;;;6.11;100.00;97242.50;2069648;28;20252;-65
2022/03/16 04:35:06;;;;;;;91.63;37.72;;;;;;;6.04;100.00;97241.09;2071399;28;20195;-65
2022/03/16 04:36:08;;;;;;;78.30;36.50;;;;;;;6.06;100.00;97248.84;2068253;28;20213;-64
2022/03/16 04:37:09;;;;;;;79.32;35.83;;;;;;;6.03;100.00;97247.19;2068846;28;20634;-64
2022/03/16 04:38:11;;;;;;;77.88;35.50;;;;;;;6.03;100.00;97247.19;2067620;28;20201;-65
2022/03/16 04:39:12;;;;;;;81.93;35.75;;;;;;;6.09;100.00;97246.09;2068042;28;20207;-65
2022/03/16 04:40:14;;;;;;;78.68;35.03;;;;;;;6.07;100.00;97246.16;2070412;28;20206;-65
2022/03/16 04:41:16;;;;;;;85.10;38.08;;;;;;;5.99;100.00;97248.22;2071352;28;20280;-65
2022/03/16 04:42:17;;;;;;;89.03;39.67;;;;;;;5.95;100.00;97251.84;2071272;28;20209;-65
2022/03/16 04:43:19;;;;;;;89.82;37.13;;;;;;;5.94;100.00;97250.16;2070153;28;20671;-65
2022/03/16 04:44:20;;;;;;;80.47;36.75;;;;;;;5.92;100.00;97247.59;2068513;28;20243;-65
2022/03/16 04:45:22;;;;;;;92.30;37.03;;;;;;;5.88;100.00;97250.38;2067330;28;20285;-65